createdAt,value
2023-03-29T00:00:14.272Z,2.33
2023-03-29T00:02:43.752Z,2.33
2023-03-29T00:05:13.322Z,2.60
2023-03-29T00:07:42.591Z,2.03
2023-03-29T00:10:14.376Z,2.37
2023-03-29T00:12:42.932Z,2.53
2023-03-29T00:15:12.196Z,2.80
2023-03-29T00:17:40.788Z,2.60
2023-03-29T00:20:10.506Z,2.60
2023-03-29T00:22:42.121Z,2.60
2023-03-29T00:25:13.287Z,2.40
2023-03-29T00:27:42.281Z,2.53
2023-03-29T00:30:11.645Z,2.40
2023-03-29T00:32:40.246Z,2.40
2023-03-29T00:35:09.920Z,2.40
2023-03-29T00:37:39.731Z,2.53
2023-03-29T00:40:11.016Z,2.70
2023-03-29T00:42:44.812Z,2.63
2023-03-29T00:45:19.894Z,2.40
2023-03-29T00:47:51.493Z,2.40
2023-03-29T00:50:25.958Z,2.73
2023-03-29T00:53:00.957Z,2.70
2023-03-29T00:55:32.524Z,2.37
2023-03-29T00:58:04.498Z,2.50
2023-03-29T01:00:36.730Z,2.63
2023-03-29T01:03:13.934Z,2.90
2023-03-29T01:05:47.721Z,2.80
2023-03-29T01:08:21.700Z,3.87
2023-03-29T01:10:54.068Z,2.57
2023-03-29T01:13:30.261Z,2.63
2023-03-29T01:16:00.056Z,2.80
2023-03-29T01:18:31.467Z,2.93
2023-03-29T01:21:12.615Z,3.23
2023-03-29T01:23:58.355Z,2.70
2023-03-29T01:26:34.062Z,2.70
2023-03-29T01:29:08.125Z,2.70
2023-03-29T01:31:40.673Z,3.30
2023-03-29T01:34:13.851Z,2.43
2023-03-29T01:36:49.454Z,3.67
2023-03-29T01:39:19.123Z,3.10
2023-03-29T01:41:56.046Z,2.77
2023-03-29T01:44:32.855Z,2.70
2023-03-29T01:47:09.877Z,2.47
2023-03-29T01:49:43.340Z,3.13
2023-03-29T01:52:17.059Z,2.47
2023-03-29T01:54:54.840Z,2.20
2023-03-29T01:57:25.569Z,2.60
2023-03-29T01:59:57.825Z,2.60
2023-03-29T02:02:29.850Z,2.43
2023-03-29T02:04:59.404Z,2.73
2023-03-29T02:07:32.284Z,2.30
2023-03-29T02:10:02.158Z,2.30
2023-03-29T02:12:30.713Z,2.57
2023-03-29T02:15:01.080Z,2.30
2023-03-29T02:17:31.911Z,2.50
2023-03-29T02:20:09.672Z,2.80
2023-03-29T02:22:42.586Z,2.53
2023-03-29T02:25:12.947Z,2.57
2023-03-29T02:27:41.719Z,2.30
2023-03-29T02:30:14.629Z,2.60
2023-03-29T02:32:53.545Z,2.53
2023-03-29T02:35:34.493Z,2.57
2023-03-29T02:38:05.555Z,3.00
2023-03-29T02:40:35.368Z,2.40
2023-03-29T02:43:07.889Z,2.60
2023-03-29T02:45:41.927Z,2.17
2023-03-29T02:48:14.727Z,2.77
2023-03-29T02:50:46.713Z,2.47
2023-03-29T02:53:18.896Z,2.80
2023-03-29T02:55:50.749Z,2.30
2023-03-29T02:58:20.683Z,2.37
2023-03-29T03:00:50.769Z,2.30
2023-03-29T03:03:19.324Z,2.50
2023-03-29T03:05:51.209Z,2.20
2023-03-29T03:08:19.940Z,2.53
2023-03-29T03:10:49.029Z,2.63
2023-03-29T03:13:17.536Z,2.77
2023-03-29T03:15:49.230Z,2.63
2023-03-29T03:18:19.411Z,2.60
2023-03-29T03:20:57.080Z,2.93
2023-03-29T03:23:26.128Z,2.60
2023-03-29T03:25:55.380Z,2.33
2023-03-29T03:28:27.460Z,2.30
2023-03-29T03:30:57.533Z,2.20
2023-03-29T03:34:05.950Z,2.37
2023-03-29T03:36:39.345Z,2.20
2023-03-29T03:39:08.013Z,2.47
2023-03-29T03:41:36.862Z,2.53
2023-03-29T03:44:05.394Z,2.50
2023-03-29T03:46:34.041Z,2.33
2023-03-29T03:49:02.999Z,2.80
2023-03-29T03:51:36.113Z,2.93
2023-03-29T03:54:04.983Z,2.40
2023-03-29T03:56:34.414Z,2.27
2023-03-29T03:59:07.157Z,2.30
2023-03-29T04:01:45.006Z,2.60
2023-03-29T04:04:20.733Z,2.60
2023-03-29T04:07:14.377Z,2.83
2023-03-29T04:09:57.811Z,2.43
2023-03-29T04:12:48.962Z,2.73
2023-03-29T04:15:17.917Z,2.73
2023-03-29T04:17:53.575Z,2.57
2023-03-29T04:20:28.600Z,2.20
2023-03-29T04:22:59.295Z,2.33
2023-03-29T04:25:28.745Z,2.50
2023-03-29T04:27:59.949Z,2.50
2023-03-29T04:31:04.246Z,2.50
2023-03-29T04:33:46.882Z,2.60
2023-03-29T04:36:16.955Z,2.40
2023-03-29T04:38:48.118Z,3.07
2023-03-29T04:41:18.177Z,2.90
2023-03-29T04:44:03.882Z,3.50
2023-03-29T04:46:33.434Z,2.43
2023-03-29T04:49:20.559Z,2.50
2023-03-29T04:51:53.350Z,2.57
2023-03-29T04:54:27.401Z,2.30
2023-03-29T04:57:18.939Z,2.60
2023-03-29T04:59:56.945Z,2.70
2023-03-29T05:02:46.250Z,2.97
2023-03-29T05:05:16.532Z,2.97
2023-03-29T05:07:46.867Z,4.80
2023-03-29T05:10:18.503Z,4.17
2023-03-29T05:12:47.022Z,3.10
2023-03-29T05:15:15.731Z,2.83
2023-03-29T05:17:44.257Z,2.80
2023-03-29T05:20:15.228Z,3.00
2023-03-29T05:22:47.176Z,2.57
2023-03-29T05:25:30.371Z,2.73
2023-03-29T05:28:00.378Z,3.03
2023-03-29T05:30:29.261Z,2.40
2023-03-29T05:33:15.389Z,2.83
2023-03-29T05:35:43.989Z,2.80
2023-03-29T05:38:13.725Z,3.30
2023-03-29T05:40:43.874Z,3.20
2023-03-29T05:43:29.877Z,3.10
2023-03-29T05:45:58.585Z,2.97
2023-03-29T05:48:28.798Z,3.17
2023-03-29T05:50:57.882Z,3.07
2023-03-29T05:53:28.399Z,2.83
2023-03-29T05:55:58.780Z,2.60
2023-03-29T05:58:30.822Z,3.10
2023-03-29T06:01:00.699Z,3.00
2023-03-29T06:03:52.640Z,2.63
2023-03-29T06:06:25.427Z,3.03
2023-03-29T06:08:54.160Z,3.57
2023-03-29T06:11:29.706Z,3.10
2023-03-29T06:14:24.989Z,3.30
2023-03-29T06:17:07.053Z,2.50
2023-03-29T06:19:35.596Z,2.20
2023-03-29T06:22:04.410Z,2.10
2023-03-29T06:24:35.372Z,2.07
2023-03-29T06:27:11.931Z,2.33
2023-03-29T06:29:40.430Z,2.40
2023-03-29T06:32:11.177Z,2.93
2023-03-29T06:34:51.822Z,2.13
2023-03-29T06:37:27.566Z,2.27
2023-03-29T06:40:21.312Z,2.27
2023-03-29T06:42:57.845Z,1.77
2023-03-29T06:45:49.026Z,2.10
2023-03-29T06:48:27.364Z,2.00
2023-03-29T06:50:56.502Z,2.20
2023-03-29T06:53:28.210Z,2.00
2023-03-29T06:56:05.390Z,2.10
2023-03-29T06:58:47.045Z,1.70
2023-03-29T07:01:35.940Z,2.10
2023-03-29T07:04:12.228Z,1.80
2023-03-29T07:07:19.774Z,2.13
2023-03-29T07:09:54.349Z,2.00
2023-03-29T07:12:46.691Z,2.80
2023-03-29T07:15:18.994Z,2.13
2023-03-29T07:18:09.548Z,2.37
2023-03-29T07:20:38.977Z,2.00
2023-03-29T07:23:09.988Z,2.20
2023-03-29T07:25:38.763Z,3.93
2023-03-29T07:28:07.782Z,2.27
2023-03-29T07:30:38.384Z,2.43
2023-03-29T07:33:15.502Z,2.33
2023-03-29T07:35:52.553Z,2.20
2023-03-29T07:38:21.371Z,2.40
2023-03-29T07:40:56.514Z,2.60
2023-03-29T07:43:44.070Z,2.33
2023-03-29T07:46:15.894Z,2.10
2023-03-29T07:48:45.607Z,2.20
2023-03-29T07:51:16.568Z,2.20
2023-03-29T07:53:55.747Z,2.00
2023-03-29T07:56:35.052Z,1.80
2023-03-29T07:59:23.780Z,2.47
2023-03-29T08:02:06.891Z,2.30
2023-03-29T08:04:41.575Z,2.00
2023-03-29T08:07:21.208Z,2.30
2023-03-29T08:10:02.351Z,2.17
2023-03-29T08:12:44.855Z,2.73
2023-03-29T08:15:14.396Z,2.67
2023-03-29T08:17:45.613Z,2.37
2023-03-29T08:20:16.303Z,2.10
2023-03-29T08:22:48.833Z,2.10
2023-03-29T08:25:23.040Z,2.50
2023-03-29T08:27:54.680Z,2.37
2023-03-29T08:30:46.432Z,2.07
2023-03-29T08:33:16.793Z,2.37
2023-03-29T08:35:47.578Z,2.50
2023-03-29T08:38:27.167Z,2.33
2023-03-29T08:40:56.130Z,2.63
2023-03-29T08:43:59.718Z,2.50
2023-03-29T08:46:45.401Z,2.47
2023-03-29T08:49:53.104Z,3.20
2023-03-29T08:52:35.718Z,3.20
2023-03-29T08:55:23.609Z,3.73
2023-03-29T08:58:17.237Z,3.23
2023-03-29T09:00:49.717Z,3.07
2023-03-29T09:03:22.797Z,2.80
2023-03-29T09:05:58.054Z,2.60
2023-03-29T09:08:28.620Z,2.80
2023-03-29T09:11:20.622Z,3.00
2023-03-29T09:14:00.429Z,3.10
2023-03-29T09:16:34.916Z,2.17
2023-03-29T09:19:11.663Z,2.90
2023-03-29T09:21:50.034Z,2.80
2023-03-29T09:24:49.615Z,2.87
2023-03-29T09:27:35.950Z,2.20
2023-03-29T09:30:25.823Z,2.30
2023-03-29T09:33:13.698Z,2.23
2023-03-29T09:36:04.335Z,2.37
2023-03-29T09:38:40.684Z,2.20
2023-03-29T09:41:21.353Z,2.87
2023-03-29T09:43:54.968Z,2.80
2023-03-29T09:46:30.461Z,2.83
2023-03-29T09:48:59.450Z,2.73
2023-03-29T09:51:31.078Z,2.80
2023-03-29T09:54:01.334Z,3.03
2023-03-29T09:56:52.673Z,3.20
2023-03-29T09:59:25.585Z,2.83
2023-03-29T10:01:54.378Z,3.53
2023-03-29T10:04:23.102Z,3.63
2023-03-29T10:07:00.055Z,4.67
2023-03-29T10:09:32.483Z,4.20
2023-03-29T10:12:15.328Z,3.77
2023-03-29T10:14:46.512Z,3.30
2023-03-29T10:17:19.964Z,3.50
2023-03-29T10:19:52.612Z,3.70
2023-03-29T10:22:24.523Z,3.43
2023-03-29T10:24:56.012Z,3.30
2023-03-29T10:27:27.724Z,2.97
2023-03-29T10:29:58.395Z,2.60
2023-03-29T10:32:32.761Z,2.63
2023-03-29T10:35:05.350Z,3.00
2023-03-29T10:37:33.967Z,3.97
2023-03-29T10:40:08.574Z,3.17
2023-03-29T10:42:37.454Z,2.50
2023-03-29T10:45:20.289Z,2.83
2023-03-29T10:47:50.010Z,3.17
2023-03-29T10:50:18.801Z,3.00
2023-03-29T10:52:47.278Z,2.97
2023-03-29T10:55:18.744Z,2.70
2023-03-29T10:57:57.128Z,3.40
2023-03-29T11:00:33.439Z,3.07
2023-03-29T11:03:28.675Z,2.97
2023-03-29T11:06:04.263Z,2.80
2023-03-29T11:08:43.243Z,3.20
2023-03-29T11:11:31.250Z,2.70
2023-03-29T11:14:08.692Z,3.00
2023-03-29T11:16:46.144Z,3.07
2023-03-29T11:19:47.171Z,3.33
2023-03-29T11:22:21.390Z,2.90
2023-03-29T11:25:06.024Z,3.47
2023-03-29T11:27:41.124Z,3.10
2023-03-29T11:30:13.293Z,3.40
2023-03-29T11:32:52.413Z,3.70
2023-03-29T11:35:33.473Z,3.03
2023-03-29T11:38:11.094Z,2.80
2023-03-29T11:40:51.501Z,3.00
2023-03-29T11:43:27.472Z,2.80
2023-03-29T11:46:03.974Z,3.30
2023-03-29T11:48:37.054Z,3.40
2023-03-29T11:51:12.313Z,3.40
2023-03-29T11:53:47.566Z,3.60
2023-03-29T11:56:29.447Z,3.40
2023-03-29T11:59:07.937Z,3.40
2023-03-29T12:01:44.598Z,3.23
2023-03-29T12:04:22.616Z,3.00
2023-03-29T12:06:57.106Z,3.60
2023-03-29T12:09:32.545Z,3.27
2023-03-29T12:12:10.085Z,3.47
2023-03-29T12:14:54.285Z,3.40
2023-03-29T12:17:29.987Z,3.30
2023-03-29T12:20:06.949Z,2.90
2023-03-29T12:22:39.365Z,3.50
2023-03-29T12:25:14.646Z,3.37
2023-03-29T12:27:54.662Z,3.30
2023-03-29T12:30:39.843Z,3.80
2023-03-29T12:33:26.254Z,3.70
2023-03-29T12:36:31.678Z,3.80
2023-03-29T12:39:26.867Z,3.97
2023-03-29T12:42:17.211Z,4.47
2023-03-29T12:45:22.757Z,4.03
2023-03-29T12:47:53.338Z,3.73
2023-03-29T12:50:33.302Z,3.80
2023-03-29T12:53:07.554Z,4.43
2023-03-29T12:55:49.912Z,3.87
2023-03-29T12:58:44.608Z,3.90
2023-03-29T13:01:26.682Z,3.97
2023-03-29T13:04:14.846Z,4.30
2023-03-29T13:07:03.042Z,4.00
2023-03-29T13:09:35.658Z,3.83
2023-03-29T13:12:24.098Z,3.90
2023-03-29T13:14:54.896Z,3.97
2023-03-29T13:17:32.613Z,3.47
2023-03-29T13:20:30.770Z,4.00
2023-03-29T13:23:11.742Z,4.33
2023-03-29T13:26:05.517Z,3.83
2023-03-29T13:28:43.251Z,5.10
2023-03-29T13:31:28.598Z,4.60
2023-03-29T13:34:05.567Z,3.60
2023-03-29T13:36:47.337Z,5.37
2023-03-29T13:39:20.537Z,4.27
2023-03-29T13:41:51.792Z,4.80
2023-03-29T13:44:29.874Z,5.37
2023-03-29T13:47:13.422Z,5.20
2023-03-29T13:49:45.479Z,4.97
2023-03-29T13:52:20.240Z,5.97
2023-03-29T13:54:54.991Z,4.70
2023-03-29T13:57:26.820Z,4.57
2023-03-29T14:00:01.445Z,4.77
2023-03-29T14:02:46.605Z,5.20
2023-03-29T14:05:19.933Z,4.60
2023-03-29T14:07:53.283Z,4.63
2023-03-29T14:10:27.310Z,5.30
2023-03-29T14:12:57.531Z,4.27
2023-03-29T14:15:46.458Z,4.63
2023-03-29T14:18:18.158Z,4.53
2023-03-29T14:20:49.161Z,4.57
2023-03-29T14:23:22.695Z,5.10
2023-03-29T14:25:51.501Z,4.70
2023-03-29T14:28:24.322Z,3.60
2023-03-29T14:30:53.682Z,4.60
2023-03-29T14:33:27.422Z,4.40
2023-03-29T14:35:56.919Z,4.10
2023-03-29T14:38:27.895Z,3.97
2023-03-29T14:41:00.906Z,4.30
2023-03-29T14:43:32.209Z,3.13
2023-03-29T14:46:04.098Z,3.80
2023-03-29T14:48:33.811Z,3.73
2023-03-29T14:51:02.974Z,3.70
2023-03-29T14:53:34.567Z,4.20
2023-03-29T14:56:03.510Z,3.90
2023-03-29T14:58:35.100Z,3.60
2023-03-29T15:01:07.950Z,3.50
2023-03-29T15:03:44.135Z,3.37
2023-03-29T15:06:15.064Z,3.40
2023-03-29T15:08:57.962Z,3.57
2023-03-29T15:11:34.155Z,3.80
2023-03-29T15:14:07.729Z,3.33
2023-03-29T15:16:39.930Z,4.27
2023-03-29T15:19:08.626Z,3.50
2023-03-29T15:21:37.415Z,3.47
2023-03-29T15:24:19.468Z,3.73
2023-03-29T15:27:01.353Z,3.43
2023-03-29T15:29:37.094Z,4.10
2023-03-29T15:32:06.052Z,3.57
2023-03-29T15:34:35.391Z,3.40
2023-03-29T15:37:04.177Z,3.57
2023-03-29T15:39:35.040Z,4.00
2023-03-29T15:42:04.139Z,3.67
2023-03-29T15:44:35.645Z,3.67
2023-03-29T15:47:05.361Z,3.40
2023-03-29T15:49:34.640Z,3.80
2023-03-29T15:52:04.085Z,3.00
2023-03-29T15:54:35.052Z,4.10
2023-03-29T15:57:07.339Z,4.20
2023-03-29T15:59:37.120Z,3.70
2023-03-29T16:02:07.854Z,4.27
2023-03-29T16:04:36.575Z,3.80
2023-03-29T16:07:12.157Z,3.33
2023-03-29T16:09:42.366Z,3.67
2023-03-29T16:12:11.417Z,3.37
2023-03-29T16:14:42.977Z,3.50
2023-03-29T16:17:12.428Z,3.93
2023-03-29T16:19:40.911Z,3.53
2023-03-29T16:22:09.533Z,3.47
2023-03-29T16:24:38.503Z,3.90
2023-03-29T16:27:08.549Z,3.83
2023-03-29T16:29:36.994Z,3.57
2023-03-29T16:32:06.895Z,3.27
2023-03-29T16:34:36.019Z,3.43
2023-03-29T16:37:04.922Z,3.40
2023-03-29T16:39:33.394Z,3.73
2023-03-29T16:42:01.960Z,3.50
2023-03-29T16:44:31.874Z,3.70
2023-03-29T16:47:00.758Z,4.30
2023-03-29T16:49:29.403Z,3.20
2023-03-29T16:51:59.898Z,4.63
2023-03-29T16:54:29.795Z,3.20
2023-03-29T16:56:58.453Z,6.03
2023-03-29T16:59:27.300Z,3.50
2023-03-29T17:01:57.413Z,3.10
2023-03-29T17:04:26.343Z,3.43
2023-03-29T17:06:54.948Z,2.90
2023-03-29T17:09:23.359Z,2.30
2023-03-29T17:11:51.940Z,2.70
2023-03-29T17:14:20.564Z,3.00
2023-03-29T17:16:49.155Z,2.43
2023-03-29T17:19:19.014Z,2.90
2023-03-29T17:21:47.571Z,3.00
2023-03-29T17:24:16.065Z,2.50
2023-03-29T17:26:45.900Z,2.83
2023-03-29T17:29:14.451Z,3.03
2023-03-29T17:31:47.702Z,2.60
2023-03-29T17:34:16.570Z,3.10
2023-03-29T17:36:46.962Z,2.87
2023-03-29T17:39:18.996Z,2.30
2023-03-29T17:41:48.075Z,2.93
2023-03-29T17:44:16.535Z,3.13
2023-03-29T17:46:45.151Z,2.93
2023-03-29T17:49:13.794Z,2.87
2023-03-29T17:51:42.489Z,3.87
2023-03-29T17:54:12.271Z,2.60
2023-03-29T17:56:40.908Z,2.20
2023-03-29T17:59:09.513Z,2.90
2023-03-29T18:01:39.460Z,3.07
2023-03-29T18:04:08.097Z,2.83
2023-03-29T18:06:36.616Z,2.90
2023-03-29T18:09:05.689Z,3.20
2023-03-29T18:11:36.571Z,3.20
2023-03-29T18:14:05.435Z,2.87
2023-03-29T18:16:34.103Z,2.60
2023-03-29T18:19:02.598Z,2.60
2023-03-29T18:21:31.256Z,3.00
2023-03-29T18:23:59.937Z,4.10
2023-03-29T18:26:28.622Z,3.20
2023-03-29T18:28:58.522Z,3.07
2023-03-29T18:31:28.130Z,3.43
2023-03-29T18:33:56.655Z,7.10
2023-03-29T18:36:26.504Z,4.87
2023-03-29T18:39:13.671Z,5.80
2023-03-29T18:41:42.178Z,5.53
2023-03-29T18:44:14.106Z,3.80
2023-03-29T18:46:42.713Z,3.90
2023-03-29T18:49:13.238Z,3.97
2023-03-29T18:51:42.191Z,3.53
2023-03-29T18:54:10.774Z,3.63
2023-03-29T18:56:39.276Z,3.40
2023-03-29T18:59:07.835Z,3.37
2023-03-29T19:01:37.779Z,3.10
2023-03-29T19:04:07.177Z,3.53
2023-03-29T19:06:36.798Z,3.50
2023-03-29T19:09:05.512Z,3.30
2023-03-29T19:11:36.026Z,3.47
2023-03-29T19:14:08.405Z,5.53
2023-03-29T19:16:40.886Z,5.40
2023-03-29T19:19:16.654Z,8.20
2023-03-29T19:21:47.013Z,6.50
2023-03-29T19:24:15.854Z,5.23
2023-03-29T19:26:44.878Z,4.30
2023-03-29T19:29:13.786Z,4.67
2023-03-29T19:31:43.868Z,5.17
2023-03-29T19:34:12.800Z,5.90
2023-03-29T19:36:41.946Z,8.00
2023-03-29T19:39:10.822Z,8.20
2023-03-29T19:41:41.796Z,7.63
2023-03-29T19:44:11.108Z,6.77
2023-03-29T19:46:52.049Z,7.37
2023-03-29T19:49:20.773Z,5.67
2023-03-29T19:51:49.481Z,4.97
2023-03-29T19:54:18.153Z,8.77
2023-03-29T19:56:50.056Z,9.67
2023-03-29T19:59:21.182Z,7.43
2023-03-29T20:01:57.005Z,5.70
2023-03-29T20:04:29.856Z,4.30
2023-03-29T20:07:00.763Z,5.40
2023-03-29T20:09:30.904Z,6.00
2023-03-29T20:12:00.991Z,7.33
2023-03-29T20:14:34.099Z,8.00
2023-03-29T20:17:04.618Z,7.30
2023-03-29T20:19:36.589Z,6.50
2023-03-29T20:22:06.100Z,7.10
2023-03-29T20:24:34.796Z,5.60
2023-03-29T20:27:04.531Z,5.60
2023-03-29T20:29:34.343Z,4.93
2023-03-29T20:32:04.636Z,5.37
2023-03-29T20:34:33.449Z,5.00
2023-03-29T20:37:02.117Z,4.80
2023-03-29T20:39:31.402Z,5.10
2023-03-29T20:42:00.636Z,5.43
2023-03-29T20:44:29.313Z,8.50
2023-03-29T20:47:03.931Z,6.67
2023-03-29T20:49:38.317Z,5.23
2023-03-29T20:52:12.714Z,5.57
2023-03-29T20:54:42.868Z,5.20
2023-03-29T20:57:16.307Z,4.43
2023-03-29T20:59:46.842Z,4.50
2023-03-29T21:02:19.013Z,5.37
2023-03-29T21:04:52.388Z,4.80
2023-03-29T21:07:22.670Z,4.17
2023-03-29T21:09:51.124Z,4.30
2023-03-29T21:12:20.254Z,4.53
2023-03-29T21:14:48.729Z,4.37
2023-03-29T21:17:17.313Z,4.30
2023-03-29T21:19:45.842Z,4.27
2023-03-29T21:22:15.912Z,4.10
2023-03-29T21:24:44.425Z,4.77
2023-03-29T21:27:12.919Z,3.70
2023-03-29T21:29:41.419Z,3.83
2023-03-29T21:32:10.851Z,4.13
2023-03-29T21:34:39.455Z,4.07
2023-03-29T21:37:08.001Z,3.90
2023-03-29T21:39:37.906Z,3.70
2023-03-29T21:42:06.829Z,4.07
2023-03-29T21:44:35.336Z,3.30
2023-03-29T21:47:03.953Z,3.80
2023-03-29T21:49:32.595Z,3.43
2023-03-29T21:52:01.047Z,3.73
2023-03-29T21:54:29.795Z,3.10
2023-03-29T21:56:59.702Z,3.60
2023-03-29T21:59:28.889Z,3.97
2023-03-29T22:01:57.592Z,3.30
2023-03-29T22:04:35.906Z,4.07
2023-03-29T22:07:05.582Z,3.67
2023-03-29T22:09:35.537Z,3.50
2023-03-29T22:12:05.777Z,3.53
2023-03-29T22:14:35.065Z,3.77
2023-03-29T22:17:05.824Z,3.83
2023-03-29T22:19:39.122Z,4.13
2023-03-29T22:22:13.528Z,3.40
2023-03-29T22:24:42.919Z,3.73
2023-03-29T22:27:13.012Z,3.53
2023-03-29T22:29:41.418Z,3.43
2023-03-29T22:32:10.028Z,3.53
2023-03-29T22:34:38.834Z,3.17
2023-03-29T22:37:07.361Z,3.90
2023-03-29T22:39:36.839Z,3.60
2023-03-29T22:42:05.633Z,3.53
2023-03-29T22:44:36.041Z,3.30
2023-03-29T22:47:04.561Z,2.80
2023-03-29T23:11:08.746Z,2.50
2023-03-29T23:13:37.246Z,3.40
2023-03-29T23:16:06.143Z,2.83
2023-03-29T23:18:37.479Z,3.13
2023-03-29T23:21:07.600Z,3.53
2023-03-29T23:23:36.976Z,3.10
2023-03-29T23:26:06.067Z,2.90
2023-03-29T23:28:35.806Z,2.80
2023-03-29T23:31:06.450Z,3.30
2023-03-29T23:33:36.524Z,3.00
2023-03-29T23:36:07.613Z,3.50
2023-03-29T23:38:37.807Z,3.10
2023-03-29T23:41:08.583Z,2.60
2023-03-29T23:43:41.239Z,3.17
2023-03-29T23:46:11.551Z,2.40
2023-03-29T23:48:39.896Z,3.00
2023-03-29T23:51:09.947Z,3.03
2023-03-29T23:53:38.419Z,2.77
2023-03-29T23:56:07.870Z,2.83
2023-03-29T23:58:38.952Z,2.97
